sensor_id;sensor_type;location;lat;lon;timestamp;P1;durP1;ratioP1;P2;durP2;ratioP2
65613;SDS011;52283;49.292;10.572;2024-03-06T00:01:14;10.75;;;7.03;;
65613;SDS011;52283;49.292;10.572;2024-03-06T00:03:41;13.60;;;8.38;;
65613;SDS011;52283;49.292;10.572;2024-03-06T00:06:08;14.45;;;9.20;;
65613;SDS011;52283;49.292;10.572;2024-03-06T00:08:34;13.00;;;7.60;;
65613;SDS011;52283;49.292;10.572;2024-03-06T00:11:02;14.20;;;7.32;;
65613;SDS011;52283;49.292;10.572;2024-03-06T00:13:30;11.82;;;6.63;;
65613;SDS011;52283;49.292;10.572;2024-03-06T00:15:56;8.70;;;6.50;;
65613;SDS011;52283;49.292;10.572;2024-03-06T00:18:37;12.73;;;7.37;;
65613;SDS011;52283;49.292;10.572;2024-03-06T00:21:03;10.32;;;6.82;;
65613;SDS011;52283;49.292;10.572;2024-03-06T00:23:30;12.40;;;7.45;;
65613;SDS011;52283;49.292;10.572;2024-03-06T00:25:57;14.57;;;7.25;;
65613;SDS011;52283;49.292;10.572;2024-03-06T00:28:23;13.75;;;8.43;;
65613;SDS011;52283;49.292;10.572;2024-03-06T00:30:51;14.15;;;7.90;;
65613;SDS011;52283;49.292;10.572;2024-03-06T00:33:17;14.85;;;8.65;;
65613;SDS011;52283;49.292;10.572;2024-03-06T00:35:44;10.82;;;6.90;;
65613;SDS011;52283;49.292;10.572;2024-03-06T00:38:10;13.52;;;8.40;;
65613;SDS011;52283;49.292;10.572;2024-03-06T00:40:38;15.13;;;8.50;;
65613;SDS011;52283;49.292;10.572;2024-03-06T00:43:05;15.00;;;8.55;;
65613;SDS011;52283;49.292;10.572;2024-03-06T00:45:32;13.80;;;7.35;;
65613;SDS011;52283;49.292;10.572;2024-03-06T00:47:59;14.45;;;8.18;;
65613;SDS011;52283;49.292;10.572;2024-03-06T00:50:26;15.88;;;8.20;;
65613;SDS011;52283;49.292;10.572;2024-03-06T00:52:52;15.38;;;8.77;;
65613;SDS011;52283;49.292;10.572;2024-03-06T00:55:19;13.23;;;7.82;;
65613;SDS011;52283;49.292;10.572;2024-03-06T00:57:45;12.80;;;7.72;;
65613;SDS011;52283;49.292;10.572;2024-03-06T01:00:12;15.15;;;8.60;;
65613;SDS011;52283;49.292;10.572;2024-03-06T01:02:41;10.70;;;7.30;;
65613;SDS011;52283;49.292;10.572;2024-03-06T01:05:09;15.10;;;8.00;;
65613;SDS011;52283;49.292;10.572;2024-03-06T01:07:37;13.50;;;8.75;;
65613;SDS011;52283;49.292;10.572;2024-03-06T01:10:04;13.43;;;7.55;;
65613;SDS011;52283;49.292;10.572;2024-03-06T01:12:32;13.23;;;7.63;;
65613;SDS011;52283;49.292;10.572;2024-03-06T01:14:58;14.93;;;8.68;;
65613;SDS011;52283;49.292;10.572;2024-03-06T01:17:25;14.73;;;8.57;;
65613;SDS011;52283;49.292;10.572;2024-03-06T01:19:51;13.98;;;7.90;;
65613;SDS011;52283;49.292;10.572;2024-03-06T01:22:19;15.98;;;8.77;;
65613;SDS011;52283;49.292;10.572;2024-03-06T01:24:46;18.10;;;8.85;;
65613;SDS011;52283;49.292;10.572;2024-03-06T01:27:14;16.13;;;8.82;;
65613;SDS011;52283;49.292;10.572;2024-03-06T01:29:41;14.90;;;9.27;;
65613;SDS011;52283;49.292;10.572;2024-03-06T01:32:08;15.93;;;8.95;;
65613;SDS011;52283;49.292;10.572;2024-03-06T01:34:35;17.75;;;8.48;;
65613;SDS011;52283;49.292;10.572;2024-03-06T01:37:02;16.15;;;9.45;;
65613;SDS011;52283;49.292;10.572;2024-03-06T01:39:30;13.95;;;8.48;;
65613;SDS011;52283;49.292;10.572;2024-03-06T01:41:57;17.75;;;9.93;;
65613;SDS011;52283;49.292;10.572;2024-03-06T01:44:23;17.38;;;9.50;;
65613;SDS011;52283;49.292;10.572;2024-03-06T01:46:50;19.02;;;10.32;;
65613;SDS011;52283;49.292;10.572;2024-03-06T01:49:16;18.40;;;9.75;;
65613;SDS011;52283;49.292;10.572;2024-03-06T01:51:44;15.73;;;9.77;;
65613;SDS011;52283;49.292;10.572;2024-03-06T01:54:14;19.15;;;10.02;;
65613;SDS011;52283;49.292;10.572;2024-03-06T01:56:44;21.92;;;11.27;;
65613;SDS011;52283;49.292;10.572;2024-03-06T01:59:12;19.80;;;11.50;;
65613;SDS011;52283;49.292;10.572;2024-03-06T02:01:39;20.27;;;10.30;;
65613;SDS011;52283;49.292;10.572;2024-03-06T02:04:06;17.10;;;9.55;;
65613;SDS011;52283;49.292;10.572;2024-03-06T02:06:34;20.83;;;10.52;;
65613;SDS011;52283;49.292;10.572;2024-03-06T02:09:01;19.50;;;10.55;;
65613;SDS011;52283;49.292;10.572;2024-03-06T02:11:28;20.65;;;11.00;;
65613;SDS011;52283;49.292;10.572;2024-03-06T02:13:56;21.35;;;10.90;;
65613;SDS011;52283;49.292;10.572;2024-03-06T02:16:23;18.92;;;10.65;;
65613;SDS011;52283;49.292;10.572;2024-03-06T02:18:51;21.45;;;10.23;;
65613;SDS011;52283;49.292;10.572;2024-03-06T02:21:19;18.95;;;10.52;;
65613;SDS011;52283;49.292;10.572;2024-03-06T02:23:46;24.20;;;11.85;;
65613;SDS011;52283;49.292;10.572;2024-03-06T02:26:13;20.95;;;11.82;;
65613;SDS011;52283;49.292;10.572;2024-03-06T02:28:45;23.38;;;11.55;;
65613;SDS011;52283;49.292;10.572;2024-03-06T02:31:12;22.52;;;11.63;;
65613;SDS011;52283;49.292;10.572;2024-03-06T02:33:39;21.15;;;11.15;;
65613;SDS011;52283;49.292;10.572;2024-03-06T02:36:06;20.35;;;10.75;;
65613;SDS011;52283;49.292;10.572;2024-03-06T02:38:34;23.15;;;12.57;;
65613;SDS011;52283;49.292;10.572;2024-03-06T02:41:01;26.40;;;12.07;;
65613;SDS011;52283;49.292;10.572;2024-03-06T02:43:28;19.80;;;11.05;;
65613;SDS011;52283;49.292;10.572;2024-03-06T02:45:54;21.52;;;11.60;;
65613;SDS011;52283;49.292;10.572;2024-03-06T02:48:21;22.30;;;13.13;;
65613;SDS011;52283;49.292;10.572;2024-03-06T02:50:47;23.48;;;12.40;;
65613;SDS011;52283;49.292;10.572;2024-03-06T02:53:14;23.00;;;11.82;;
65613;SDS011;52283;49.292;10.572;2024-03-06T02:55:42;20.48;;;11.32;;
65613;SDS011;52283;49.292;10.572;2024-03-06T02:58:08;23.15;;;11.90;;
65613;SDS011;52283;49.292;10.572;2024-03-06T03:00:35;22.83;;;11.48;;
65613;SDS011;52283;49.292;10.572;2024-03-06T03:03:01;24.63;;;11.70;;
65613;SDS011;52283;49.292;10.572;2024-03-06T03:05:28;26.02;;;14.20;;
65613;SDS011;52283;49.292;10.572;2024-03-06T03:07:54;29.05;;;15.43;;
65613;SDS011;52283;49.292;10.572;2024-03-06T03:10:21;26.00;;;14.35;;
65613;SDS011;52283;49.292;10.572;2024-03-06T03:12:51;25.42;;;12.90;;
65613;SDS011;52283;49.292;10.572;2024-03-06T03:15:17;25.73;;;14.48;;
65613;SDS011;52283;49.292;10.572;2024-03-06T03:17:44;30.17;;;14.70;;
65613;SDS011;52283;49.292;10.572;2024-03-06T03:20:10;26.13;;;14.00;;
65613;SDS011;52283;49.292;10.572;2024-03-06T03:22:37;25.35;;;13.80;;
65613;SDS011;52283;49.292;10.572;2024-03-06T03:25:06;30.45;;;13.85;;
65613;SDS011;52283;49.292;10.572;2024-03-06T03:27:33;25.92;;;12.95;;
65613;SDS011;52283;49.292;10.572;2024-03-06T03:30:01;27.77;;;14.07;;
65613;SDS011;52283;49.292;10.572;2024-03-06T03:32:28;28.35;;;13.48;;
65613;SDS011;52283;49.292;10.572;2024-03-06T03:34:54;26.77;;;14.27;;
65613;SDS011;52283;49.292;10.572;2024-03-06T03:37:21;27.92;;;15.15;;
65613;SDS011;52283;49.292;10.572;2024-03-06T03:39:48;27.20;;;15.38;;
65613;SDS011;52283;49.292;10.572;2024-03-06T03:42:15;29.25;;;14.85;;
65613;SDS011;52283;49.292;10.572;2024-03-06T03:44:41;31.50;;;15.18;;
65613;SDS011;52283;49.292;10.572;2024-03-06T03:47:09;29.98;;;15.23;;
65613;SDS011;52283;49.292;10.572;2024-03-06T03:49:37;35.03;;;16.00;;
65613;SDS011;52283;49.292;10.572;2024-03-06T03:52:03;31.27;;;15.65;;
65613;SDS011;52283;49.292;10.572;2024-03-06T03:54:30;29.27;;;15.52;;
65613;SDS011;52283;49.292;10.572;2024-03-06T03:56:56;32.80;;;17.35;;
65613;SDS011;52283;49.292;10.572;2024-03-06T03:59:24;28.98;;;14.68;;
65613;SDS011;52283;49.292;10.572;2024-03-06T04:01:50;26.52;;;13.88;;
65613;SDS011;52283;49.292;10.572;2024-03-06T04:04:18;34.17;;;16.10;;
65613;SDS011;52283;49.292;10.572;2024-03-06T04:06:46;38.22;;;17.75;;
65613;SDS011;52283;49.292;10.572;2024-03-06T04:09:12;30.15;;;14.95;;
65613;SDS011;52283;49.292;10.572;2024-03-06T04:11:39;36.70;;;16.35;;
65613;SDS011;52283;49.292;10.572;2024-03-06T04:14:06;30.65;;;15.52;;
65613;SDS011;52283;49.292;10.572;2024-03-06T04:16:33;33.88;;;15.43;;
65613;SDS011;52283;49.292;10.572;2024-03-06T04:19:00;37.75;;;17.65;;
65613;SDS011;52283;49.292;10.572;2024-03-06T04:21:28;33.15;;;16.60;;
65613;SDS011;52283;49.292;10.572;2024-03-06T04:23:54;36.58;;;16.67;;
65613;SDS011;52283;49.292;10.572;2024-03-06T04:26:21;40.47;;;17.35;;
65613;SDS011;52283;49.292;10.572;2024-03-06T04:28:47;34.92;;;16.38;;
65613;SDS011;52283;49.292;10.572;2024-03-06T04:31:14;36.20;;;15.32;;
65613;SDS011;52283;49.292;10.572;2024-03-06T04:33:40;32.85;;;16.65;;
65613;SDS011;52283;49.292;10.572;2024-03-06T04:36:07;33.50;;;16.25;;
65613;SDS011;52283;49.292;10.572;2024-03-06T04:38:36;35.42;;;15.95;;
65613;SDS011;52283;49.292;10.572;2024-03-06T04:41:02;36.63;;;16.83;;
65613;SDS011;52283;49.292;10.572;2024-03-06T04:43:31;35.65;;;16.17;;
65613;SDS011;52283;49.292;10.572;2024-03-06T04:45:57;38.28;;;16.15;;
65613;SDS011;52283;49.292;10.572;2024-03-06T04:48:24;31.92;;;15.75;;
65613;SDS011;52283;49.292;10.572;2024-03-06T04:50:50;39.17;;;18.33;;
65613;SDS011;52283;49.292;10.572;2024-03-06T04:53:18;35.22;;;16.38;;
65613;SDS011;52283;49.292;10.572;2024-03-06T04:55:46;37.03;;;16.60;;
65613;SDS011;52283;49.292;10.572;2024-03-06T04:58:13;34.53;;;17.55;;
65613;SDS011;52283;49.292;10.572;2024-03-06T05:00:39;36.80;;;17.02;;
65613;SDS011;52283;49.292;10.572;2024-03-06T05:03:06;33.63;;;16.65;;
65613;SDS011;52283;49.292;10.572;2024-03-06T05:05:32;31.88;;;16.13;;
65613;SDS011;52283;49.292;10.572;2024-03-06T05:07:59;30.85;;;15.27;;
65613;SDS011;52283;49.292;10.572;2024-03-06T05:10:24;38.47;;;17.00;;
65613;SDS011;52283;49.292;10.572;2024-03-06T05:12:53;36.88;;;16.63;;
65613;SDS011;52283;49.292;10.572;2024-03-06T05:15:20;35.83;;;16.73;;
65613;SDS011;52283;49.292;10.572;2024-03-06T05:17:46;36.05;;;15.40;;
65613;SDS011;52283;49.292;10.572;2024-03-06T05:20:13;35.63;;;15.52;;
65613;SDS011;52283;49.292;10.572;2024-03-06T05:22:40;32.58;;;16.23;;
65613;SDS011;52283;49.292;10.572;2024-03-06T05:25:06;30.55;;;15.68;;
65613;SDS011;52283;49.292;10.572;2024-03-06T05:27:33;36.08;;;16.17;;
65613;SDS011;52283;49.292;10.572;2024-03-06T05:30:01;38.25;;;16.25;;
65613;SDS011;52283;49.292;10.572;2024-03-06T05:32:29;40.25;;;16.55;;
65613;SDS011;52283;49.292;10.572;2024-03-06T05:34:55;39.30;;;16.50;;
65613;SDS011;52283;49.292;10.572;2024-03-06T05:37:23;35.90;;;17.08;;
65613;SDS011;52283;49.292;10.572;2024-03-06T05:39:50;37.05;;;16.10;;
65613;SDS011;52283;49.292;10.572;2024-03-06T05:42:17;32.80;;;15.60;;
65613;SDS011;52283;49.292;10.572;2024-03-06T05:44:43;33.83;;;15.05;;
65613;SDS011;52283;49.292;10.572;2024-03-06T05:47:11;35.80;;;16.05;;
65613;SDS011;52283;49.292;10.572;2024-03-06T05:49:37;39.17;;;16.58;;
65613;SDS011;52283;49.292;10.572;2024-03-06T05:52:04;37.05;;;15.38;;
65613;SDS011;52283;49.292;10.572;2024-03-06T05:54:30;39.17;;;16.30;;
65613;SDS011;52283;49.292;10.572;2024-03-06T05:56:58;46.55;;;18.85;;
65613;SDS011;52283;49.292;10.572;2024-03-06T05:59:25;46.25;;;18.50;;
65613;SDS011;52283;49.292;10.572;2024-03-06T06:01:51;42.83;;;15.98;;
65613;SDS011;52283;49.292;10.572;2024-03-06T06:04:19;39.05;;;16.65;;
65613;SDS011;52283;49.292;10.572;2024-03-06T06:06:47;40.78;;;17.23;;
65613;SDS011;52283;49.292;10.572;2024-03-06T06:09:13;39.53;;;17.95;;
65613;SDS011;52283;49.292;10.572;2024-03-06T06:11:41;44.42;;;16.70;;
65613;SDS011;52283;49.292;10.572;2024-03-06T06:14:07;45.75;;;18.10;;
65613;SDS011;52283;49.292;10.572;2024-03-06T06:16:34;41.80;;;17.38;;
65613;SDS011;52283;49.292;10.572;2024-03-06T06:19:01;44.78;;;18.27;;
65613;SDS011;52283;49.292;10.572;2024-03-06T06:21:30;43.65;;;17.90;;
65613;SDS011;52283;49.292;10.572;2024-03-06T06:23:56;48.97;;;18.27;;
65613;SDS011;52283;49.292;10.572;2024-03-06T06:26:22;44.65;;;18.45;;
65613;SDS011;52283;49.292;10.572;2024-03-06T06:28:49;49.55;;;19.45;;
65613;SDS011;52283;49.292;10.572;2024-03-06T06:31:15;46.65;;;18.67;;
65613;SDS011;52283;49.292;10.572;2024-03-06T06:33:42;46.70;;;17.80;;
65613;SDS011;52283;49.292;10.572;2024-03-06T06:36:10;51.78;;;20.02;;
65613;SDS011;52283;49.292;10.572;2024-03-06T06:38:38;45.15;;;19.50;;
65613;SDS011;52283;49.292;10.572;2024-03-06T06:41:04;54.15;;;20.02;;
65613;SDS011;52283;49.292;10.572;2024-03-06T06:43:31;47.50;;;19.00;;
65613;SDS011;52283;49.292;10.572;2024-03-06T06:45:57;48.78;;;17.52;;
65613;SDS011;52283;49.292;10.572;2024-03-06T06:48:24;52.40;;;19.40;;
65613;SDS011;52283;49.292;10.572;2024-03-06T06:50:50;47.88;;;19.92;;
65613;SDS011;52283;49.292;10.572;2024-03-06T06:53:17;56.30;;;20.17;;
65613;SDS011;52283;49.292;10.572;2024-03-06T06:55:45;46.97;;;19.50;;
65613;SDS011;52283;49.292;10.572;2024-03-06T06:58:11;52.35;;;20.13;;
65613;SDS011;52283;49.292;10.572;2024-03-06T07:00:37;55.05;;;19.42;;
65613;SDS011;52283;49.292;10.572;2024-03-06T07:03:04;51.83;;;19.88;;
65613;SDS011;52283;49.292;10.572;2024-03-06T07:05:31;46.65;;;20.10;;
65613;SDS011;52283;49.292;10.572;2024-03-06T07:07:57;54.80;;;19.55;;
65613;SDS011;52283;49.292;10.572;2024-03-06T07:10:23;55.03;;;21.77;;
65613;SDS011;52283;49.292;10.572;2024-03-06T07:12:54;57.17;;;21.05;;
65613;SDS011;52283;49.292;10.572;2024-03-06T07:15:20;49.72;;;19.77;;
65613;SDS011;52283;49.292;10.572;2024-03-06T07:17:47;54.13;;;19.63;;
65613;SDS011;52283;49.292;10.572;2024-03-06T07:20:13;52.10;;;19.77;;
65613;SDS011;52283;49.292;10.572;2024-03-06T07:22:40;52.03;;;19.02;;
65613;SDS011;52283;49.292;10.572;2024-03-06T07:25:07;61.03;;;22.55;;
65613;SDS011;52283;49.292;10.572;2024-03-06T07:27:34;50.22;;;21.05;;
65613;SDS011;52283;49.292;10.572;2024-03-06T07:30:02;54.80;;;19.58;;
65613;SDS011;52283;49.292;10.572;2024-03-06T07:32:30;47.67;;;19.70;;
65613;SDS011;52283;49.292;10.572;2024-03-06T07:34:56;46.92;;;20.17;;
65613;SDS011;52283;49.292;10.572;2024-03-06T07:37:23;55.95;;;21.58;;
65613;SDS011;52283;49.292;10.572;2024-03-06T07:39:50;62.97;;;20.90;;
65613;SDS011;52283;49.292;10.572;2024-03-06T07:42:16;58.95;;;21.02;;
65613;SDS011;52283;49.292;10.572;2024-03-06T07:44:43;56.55;;;23.27;;
65613;SDS011;52283;49.292;10.572;2024-03-06T07:47:11;56.65;;;20.85;;
65613;SDS011;52283;49.292;10.572;2024-03-06T07:49:39;56.42;;;20.67;;
65613;SDS011;52283;49.292;10.572;2024-03-06T07:52:06;56.17;;;21.30;;
65613;SDS011;52283;49.292;10.572;2024-03-06T07:54:32;61.85;;;23.00;;
65613;SDS011;52283;49.292;10.572;2024-03-06T07:56:59;55.97;;;20.75;;
65613;SDS011;52283;49.292;10.572;2024-03-06T07:59:25;57.55;;;21.75;;
65613;SDS011;52283;49.292;10.572;2024-03-06T08:01:52;53.78;;;20.45;;
65613;SDS011;52283;49.292;10.572;2024-03-06T08:04:21;58.05;;;22.25;;
65613;SDS011;52283;49.292;10.572;2024-03-06T08:06:48;59.65;;;22.08;;
65613;SDS011;52283;49.292;10.572;2024-03-06T08:09:15;62.70;;;23.10;;
65613;SDS011;52283;49.292;10.572;2024-03-06T08:11:42;52.30;;;21.80;;
65613;SDS011;52283;49.292;10.572;2024-03-06T08:14:08;62.22;;;21.90;;
65613;SDS011;52283;49.292;10.572;2024-03-06T08:16:35;65.05;;;21.70;;
65613;SDS011;52283;49.292;10.572;2024-03-06T08:19:02;54.55;;;21.75;;
65613;SDS011;52283;49.292;10.572;2024-03-06T08:21:30;68.47;;;22.77;;
65613;SDS011;52283;49.292;10.572;2024-03-06T08:23:56;59.58;;;20.77;;
65613;SDS011;52283;49.292;10.572;2024-03-06T08:26:23;57.75;;;21.25;;
65613;SDS011;52283;49.292;10.572;2024-03-06T08:28:49;60.88;;;22.45;;
65613;SDS011;52283;49.292;10.572;2024-03-06T08:31:17;55.08;;;21.38;;
65613;SDS011;52283;49.292;10.572;2024-03-06T08:33:44;62.22;;;22.42;;
65613;SDS011;52283;49.292;10.572;2024-03-06T08:36:10;56.15;;;21.02;;
65613;SDS011;52283;49.292;10.572;2024-03-06T08:38:40;60.22;;;21.00;;
65613;SDS011;52283;49.292;10.572;2024-03-06T08:41:06;57.42;;;20.67;;
65613;SDS011;52283;49.292;10.572;2024-03-06T08:43:33;58.40;;;20.30;;
65613;SDS011;52283;49.292;10.572;2024-03-06T08:46:00;57.40;;;21.58;;
65613;SDS011;52283;49.292;10.572;2024-03-06T08:48:26;59.20;;;22.08;;
65613;SDS011;52283;49.292;10.572;2024-03-06T08:50:53;65.38;;;21.98;;
65613;SDS011;52283;49.292;10.572;2024-03-06T08:53:19;67.00;;;22.63;;
65613;SDS011;52283;49.292;10.572;2024-03-06T08:55:47;57.97;;;22.02;;
65613;SDS011;52283;49.292;10.572;2024-03-06T08:58:13;59.40;;;21.27;;
65613;SDS011;52283;49.292;10.572;2024-03-06T09:00:40;57.15;;;20.25;;
65613;SDS011;52283;49.292;10.572;2024-03-06T09:03:09;59.17;;;19.55;;
65613;SDS011;52283;49.292;10.572;2024-03-06T09:05:36;60.42;;;21.25;;
65613;SDS011;52283;49.292;10.572;2024-03-06T09:08:03;61.53;;;21.23;;
65613;SDS011;52283;49.292;10.572;2024-03-06T09:10:30;52.58;;;20.23;;
65613;SDS011;52283;49.292;10.572;2024-03-06T09:12:58;57.97;;;20.52;;
65613;SDS011;52283;49.292;10.572;2024-03-06T09:15:25;55.28;;;20.05;;
65613;SDS011;52283;49.292;10.572;2024-03-06T09:17:51;56.05;;;20.20;;
65613;SDS011;52283;49.292;10.572;2024-03-06T09:20:18;61.03;;;20.90;;
65613;SDS011;52283;49.292;10.572;2024-03-06T09:22:44;53.20;;;19.13;;
65613;SDS011;52283;49.292;10.572;2024-03-06T09:25:11;55.25;;;19.75;;
65613;SDS011;52283;49.292;10.572;2024-03-06T09:27:39;57.85;;;19.50;;
65613;SDS011;52283;49.292;10.572;2024-03-06T09:30:07;52.60;;;19.88;;
65613;SDS011;52283;49.292;10.572;2024-03-06T09:32:34;47.00;;;18.83;;
65613;SDS011;52283;49.292;10.572;2024-03-06T09:35:01;49.78;;;19.65;;
65613;SDS011;52283;49.292;10.572;2024-03-06T09:37:28;48.90;;;18.63;;
65613;SDS011;52283;49.292;10.572;2024-03-06T09:39:55;55.97;;;20.40;;
65613;SDS011;52283;49.292;10.572;2024-03-06T09:42:22;48.55;;;20.30;;
65613;SDS011;52283;49.292;10.572;2024-03-06T09:44:48;51.55;;;19.05;;
65613;SDS011;52283;49.292;10.572;2024-03-06T09:47:18;50.10;;;18.30;;
65613;SDS011;52283;49.292;10.572;2024-03-06T09:49:50;46.13;;;16.67;;
65613;SDS011;52283;49.292;10.572;2024-03-06T09:52:18;46.17;;;18.10;;
65613;SDS011;52283;49.292;10.572;2024-03-06T09:54:44;53.13;;;19.33;;
65613;SDS011;52283;49.292;10.572;2024-03-06T09:57:11;48.97;;;19.25;;
65613;SDS011;52283;49.292;10.572;2024-03-06T09:59:40;43.58;;;17.77;;
65613;SDS011;52283;49.292;10.572;2024-03-06T10:02:10;45.65;;;16.95;;
65613;SDS011;52283;49.292;10.572;2024-03-06T10:04:54;37.05;;;16.90;;
65613;SDS011;52283;49.292;10.572;2024-03-06T10:07:22;51.85;;;18.70;;
65613;SDS011;52283;49.292;10.572;2024-03-06T10:09:48;46.63;;;18.58;;
65613;SDS011;52283;49.292;10.572;2024-03-06T10:12:16;44.05;;;16.77;;
65613;SDS011;52283;49.292;10.572;2024-03-06T10:14:48;44.75;;;17.90;;
65613;SDS011;52283;49.292;10.572;2024-03-06T10:17:19;39.22;;;17.08;;
65613;SDS011;52283;49.292;10.572;2024-03-06T10:19:48;39.88;;;16.17;;
65613;SDS011;52283;49.292;10.572;2024-03-06T10:22:16;43.45;;;16.75;;
65613;SDS011;52283;49.292;10.572;2024-03-06T10:24:43;47.13;;;17.80;;
65613;SDS011;52283;49.292;10.572;2024-03-06T10:27:13;44.90;;;19.00;;
65613;SDS011;52283;49.292;10.572;2024-03-06T10:29:41;41.65;;;18.17;;
65613;SDS011;52283;49.292;10.572;2024-03-06T10:32:08;46.35;;;19.45;;
65613;SDS011;52283;49.292;10.572;2024-03-06T10:34:36;46.88;;;18.55;;
65613;SDS011;52283;49.292;10.572;2024-03-06T10:37:03;48.38;;;16.60;;
65613;SDS011;52283;49.292;10.572;2024-03-06T10:39:30;57.60;;;17.35;;
65613;SDS011;52283;49.292;10.572;2024-03-06T10:42:02;45.35;;;17.20;;
65613;SDS011;52283;49.292;10.572;2024-03-06T10:44:31;38.60;;;16.75;;
65613;SDS011;52283;49.292;10.572;2024-03-06T10:47:01;40.15;;;16.50;;
65613;SDS011;52283;49.292;10.572;2024-03-06T10:49:29;44.10;;;16.98;;
65613;SDS011;52283;49.292;10.572;2024-03-06T10:51:58;41.53;;;17.33;;
65613;SDS011;52283;49.292;10.572;2024-03-06T10:54:26;41.70;;;16.77;;
65613;SDS011;52283;49.292;10.572;2024-03-06T10:56:53;43.25;;;18.10;;
65613;SDS011;52283;49.292;10.572;2024-03-06T10:59:20;40.47;;;16.55;;
65613;SDS011;52283;49.292;10.572;2024-03-06T11:01:52;39.40;;;16.60;;
65613;SDS011;52283;49.292;10.572;2024-03-06T11:04:19;36.20;;;15.55;;
65613;SDS011;52283;49.292;10.572;2024-03-06T11:06:46;38.80;;;16.02;;
65613;SDS011;52283;49.292;10.572;2024-03-06T11:09:14;35.17;;;14.63;;
65613;SDS011;52283;49.292;10.572;2024-03-06T11:11:47;35.53;;;14.98;;
65613;SDS011;52283;49.292;10.572;2024-03-06T11:14:14;36.90;;;15.20;;
65613;SDS011;52283;49.292;10.572;2024-03-06T11:16:56;30.38;;;13.05;;
65613;SDS011;52283;49.292;10.572;2024-03-06T11:19:24;30.52;;;13.77;;
65613;SDS011;52283;49.292;10.572;2024-03-06T11:21:50;35.47;;;13.88;;
65613;SDS011;52283;49.292;10.572;2024-03-06T11:24:21;27.50;;;13.82;;
65613;SDS011;52283;49.292;10.572;2024-03-06T11:26:49;27.40;;;13.25;;
65613;SDS011;52283;49.292;10.572;2024-03-06T11:29:21;33.17;;;12.80;;
65613;SDS011;52283;49.292;10.572;2024-03-06T11:34:33;33.17;;;13.45;;
65613;SDS011;52283;49.292;10.572;2024-03-06T11:37:03;28.85;;;13.02;;
65613;SDS011;52283;49.292;10.572;2024-03-06T11:39:34;31.42;;;13.25;;
65613;SDS011;52283;49.292;10.572;2024-03-06T11:42:02;36.67;;;14.45;;
65613;SDS011;52283;49.292;10.572;2024-03-06T11:44:29;33.88;;;15.05;;
65613;SDS011;52283;49.292;10.572;2024-03-06T11:46:58;34.85;;;13.98;;
65613;SDS011;52283;49.292;10.572;2024-03-06T11:49:26;31.27;;;13.88;;
65613;SDS011;52283;49.292;10.572;2024-03-06T11:51:56;29.77;;;12.80;;
65613;SDS011;52283;49.292;10.572;2024-03-06T11:54:23;30.27;;;12.48;;
65613;SDS011;52283;49.292;10.572;2024-03-06T11:56:54;30.02;;;12.60;;
65613;SDS011;52283;49.292;10.572;2024-03-06T11:59:22;31.00;;;13.35;;
65613;SDS011;52283;49.292;10.572;2024-03-06T12:01:49;40.72;;;14.63;;
65613;SDS011;52283;49.292;10.572;2024-03-06T12:04:16;31.58;;;13.98;;
65613;SDS011;52283;49.292;10.572;2024-03-06T12:06:42;30.23;;;12.90;;
65613;SDS011;52283;49.292;10.572;2024-03-06T12:09:09;26.23;;;11.63;;
65613;SDS011;52283;49.292;10.572;2024-03-06T12:11:37;27.52;;;13.30;;
65613;SDS011;52283;49.292;10.572;2024-03-06T12:14:05;29.63;;;12.30;;
65613;SDS011;52283;49.292;10.572;2024-03-06T12:16:32;32.38;;;13.18;;
65613;SDS011;52283;49.292;10.572;2024-03-06T12:18:59;32.20;;;13.07;;
65613;SDS011;52283;49.292;10.572;2024-03-06T12:21:27;28.42;;;12.30;;
65613;SDS011;52283;49.292;10.572;2024-03-06T12:24:04;32.10;;;12.77;;
65613;SDS011;52283;49.292;10.572;2024-03-06T12:26:31;27.92;;;12.77;;
65613;SDS011;52283;49.292;10.572;2024-03-06T12:29:08;28.77;;;12.68;;
65613;SDS011;52283;49.292;10.572;2024-03-06T12:31:37;28.17;;;12.30;;
65613;SDS011;52283;49.292;10.572;2024-03-06T12:34:05;27.08;;;12.52;;
65613;SDS011;52283;49.292;10.572;2024-03-06T12:36:32;26.23;;;12.40;;
65613;SDS011;52283;49.292;10.572;2024-03-06T12:38:59;26.92;;;14.18;;
65613;SDS011;52283;49.292;10.572;2024-03-06T12:41:27;31.05;;;13.65;;
65613;SDS011;52283;49.292;10.572;2024-03-06T12:43:55;26.27;;;12.80;;
65613;SDS011;52283;49.292;10.572;2024-03-06T12:46:23;27.50;;;12.02;;
65613;SDS011;52283;49.292;10.572;2024-03-06T12:48:51;26.45;;;12.27;;
65613;SDS011;52283;49.292;10.572;2024-03-06T12:51:18;27.02;;;13.05;;
65613;SDS011;52283;49.292;10.572;2024-03-06T12:53:44;33.08;;;14.60;;
65613;SDS011;52283;49.292;10.572;2024-03-06T12:56:11;29.45;;;13.40;;
65613;SDS011;52283;49.292;10.572;2024-03-06T12:58:37;27.55;;;13.13;;
65613;SDS011;52283;49.292;10.572;2024-03-06T13:01:04;30.65;;;13.40;;
65613;SDS011;52283;49.292;10.572;2024-03-06T13:03:32;29.10;;;13.18;;
65613;SDS011;52283;49.292;10.572;2024-03-06T13:05:59;31.38;;;12.20;;
65613;SDS011;52283;49.292;10.572;2024-03-06T13:08:25;31.77;;;12.90;;
65613;SDS011;52283;49.292;10.572;2024-03-06T13:10:52;29.75;;;13.48;;
65613;SDS011;52283;49.292;10.572;2024-03-06T13:13:19;32.42;;;13.43;;
65613;SDS011;52283;49.292;10.572;2024-03-06T13:15:45;30.60;;;13.95;;
65613;SDS011;52283;49.292;10.572;2024-03-06T13:18:13;29.95;;;13.38;;
65613;SDS011;52283;49.292;10.572;2024-03-06T13:20:42;36.10;;;14.43;;
65613;SDS011;52283;49.292;10.572;2024-03-06T13:23:09;27.88;;;13.13;;
65613;SDS011;52283;49.292;10.572;2024-03-06T13:25:35;33.03;;;14.02;;
65613;SDS011;52283;49.292;10.572;2024-03-06T13:28:02;30.52;;;12.02;;
65613;SDS011;52283;49.292;10.572;2024-03-06T13:30:28;33.80;;;14.10;;
65613;SDS011;52283;49.292;10.572;2024-03-06T13:32:55;31.48;;;12.18;;
65613;SDS011;52283;49.292;10.572;2024-03-06T13:35:21;29.15;;;13.23;;
65613;SDS011;52283;49.292;10.572;2024-03-06T13:37:49;29.08;;;13.00;;
65613;SDS011;52283;49.292;10.572;2024-03-06T13:40:16;26.02;;;11.68;;
65613;SDS011;52283;49.292;10.572;2024-03-06T13:42:43;29.20;;;11.55;;
65613;SDS011;52283;49.292;10.572;2024-03-06T13:45:10;31.40;;;12.98;;
65613;SDS011;52283;49.292;10.572;2024-03-06T13:47:37;24.20;;;11.75;;
65613;SDS011;52283;49.292;10.572;2024-03-06T13:50:05;30.08;;;13.48;;
65613;SDS011;52283;49.292;10.572;2024-03-06T13:52:33;30.30;;;11.40;;
65613;SDS011;52283;49.292;10.572;2024-03-06T13:55:01;25.25;;;12.15;;
65613;SDS011;52283;49.292;10.572;2024-03-06T13:57:29;27.77;;;11.45;;
65613;SDS011;52283;49.292;10.572;2024-03-06T13:59:58;31.10;;;13.68;;
65613;SDS011;52283;49.292;10.572;2024-03-06T14:02:25;25.83;;;12.07;;
65613;SDS011;52283;49.292;10.572;2024-03-06T14:04:51;30.30;;;12.00;;
65613;SDS011;52283;49.292;10.572;2024-03-06T14:07:17;28.95;;;12.73;;
65613;SDS011;52283;49.292;10.572;2024-03-06T14:09:44;25.77;;;11.85;;
65613;SDS011;52283;49.292;10.572;2024-03-06T14:12:12;29.27;;;12.13;;
65613;SDS011;52283;49.292;10.572;2024-03-06T14:14:38;24.27;;;10.52;;